sensor_id;sensor_type;location;lat;lon;timestamp;pressure;altitude;pressure_sealevel;temperature;humidity
76653;BME280;65563;45.970;12.680;2022-12-18T00:00:47;102508.25;;;3.56;70.60
76653;BME280;65563;45.970;12.680;2022-12-18T00:01:47;102512.56;;;3.57;70.15
76653;BME280;65563;45.970;12.680;2022-12-18T00:02:47;102506.38;;;3.58;70.03
76653;BME280;65563;45.970;12.680;2022-12-18T00:03:48;102504.78;;;3.55;70.04
76653;BME280;65563;45.970;12.680;2022-12-18T00:04:48;102510.03;;;3.55;69.99
76653;BME280;65563;45.970;12.680;2022-12-18T00:05:51;102506.25;;;3.59;69.98
76653;BME280;65563;45.970;12.680;2022-12-18T00:06:52;102508.06;;;3.59;69.84
76653;BME280;65563;45.970;12.680;2022-12-18T00:07:53;102510.56;;;3.61;69.88
76653;BME280;65563;45.970;12.680;2022-12-18T00:08:53;102514.03;;;3.61;70.17
76653;BME280;65563;45.970;12.680;2022-12-18T00:09:54;102511.22;;;3.64;69.01
76653;BME280;65563;45.970;12.680;2022-12-18T00:10:54;102513.13;;;3.62;69.10
76653;BME280;65563;45.970;12.680;2022-12-18T00:11:54;102506.06;;;3.63;69.46
76653;BME280;65563;45.970;12.680;2022-12-18T00:12:55;102514.78;;;3.63;69.28
76653;BME280;65563;45.970;12.680;2022-12-18T00:13:56;102516.38;;;3.66;69.01
76653;BME280;65563;45.970;12.680;2022-12-18T00:14:56;102515.97;;;3.72;68.69
76653;BME280;65563;45.970;12.680;2022-12-18T00:16:00;102515.22;;;3.70;68.96
76653;BME280;65563;45.970;12.680;2022-12-18T00:17:01;102517.75;;;3.71;68.62
76653;BME280;65563;45.970;12.680;2022-12-18T00:18:01;102516.19;;;3.69;68.48
76653;BME280;65563;45.970;12.680;2022-12-18T00:19:01;102521.00;;;3.75;68.76
76653;BME280;65563;45.970;12.680;2022-12-18T00:20:01;102518.81;;;3.69;68.62
76653;BME280;65563;45.970;12.680;2022-12-18T00:21:02;102515.03;;;3.73;68.41
76653;BME280;65563;45.970;12.680;2022-12-18T00:22:03;102518.50;;;3.73;68.92
76653;BME280;65563;45.970;12.680;2022-12-18T00:23:03;102518.81;;;3.69;69.10
76653;BME280;65563;45.970;12.680;2022-12-18T00:24:03;102518.38;;;3.75;68.85
76653;BME280;65563;45.970;12.680;2022-12-18T00:25:03;102515.31;;;3.68;69.30
76653;BME280;65563;45.970;12.680;2022-12-18T00:26:05;102517.66;;;3.73;69.74
76653;BME280;65563;45.970;12.680;2022-12-18T00:27:05;102525.03;;;3.80;68.58
76653;BME280;65563;45.970;12.680;2022-12-18T00:28:06;102521.38;;;3.83;69.33
76653;BME280;65563;45.970;12.680;2022-12-18T00:29:12;102519.78;;;3.80;68.73
76653;BME280;65563;45.970;12.680;2022-12-18T00:30:13;102519.34;;;3.74;68.76
76653;BME280;65563;45.970;12.680;2022-12-18T00:31:15;102520.81;;;3.78;68.74
76653;BME280;65563;45.970;12.680;2022-12-18T00:32:15;102527.56;;;3.82;68.81
76653;BME280;65563;45.970;12.680;2022-12-18T00:33:15;102517.03;;;3.82;68.83
76653;BME280;65563;45.970;12.680;2022-12-18T00:34:15;102524.28;;;3.78;68.65
76653;BME280;65563;45.970;12.680;2022-12-18T00:35:15;102524.94;;;3.82;69.02
76653;BME280;65563;45.970;12.680;2022-12-18T00:36:17;102519.97;;;3.77;68.36
76653;BME280;65563;45.970;12.680;2022-12-18T00:37:18;102524.66;;;3.87;68.89
76653;BME280;65563;45.970;12.680;2022-12-18T00:38:18;102525.38;;;3.89;68.21
76653;BME280;65563;45.970;12.680;2022-12-18T00:39:18;102528.19;;;3.86;68.72
76653;BME280;65563;45.970;12.680;2022-12-18T00:40:18;102524.34;;;3.91;67.96
76653;BME280;65563;45.970;12.680;2022-12-18T00:41:18;102532.41;;;3.88;68.51
76653;BME280;65563;45.970;12.680;2022-12-18T00:42:19;102529.06;;;3.86;68.31
76653;BME280;65563;45.970;12.680;2022-12-18T00:43:19;102531.69;;;3.86;68.37
76653;BME280;65563;45.970;12.680;2022-12-18T00:44:19;102536.19;;;3.84;68.48
76653;BME280;65563;45.970;12.680;2022-12-18T00:45:19;102524.53;;;3.88;68.73
76653;BME280;65563;45.970;12.680;2022-12-18T00:46:19;102530.09;;;3.83;68.88
76653;BME280;65563;45.970;12.680;2022-12-18T00:47:20;102536.41;;;3.81;68.92
76653;BME280;65563;45.970;12.680;2022-12-18T00:48:20;102533.00;;;3.79;68.95
76653;BME280;65563;45.970;12.680;2022-12-18T00:49:20;102543.53;;;3.79;68.68
76653;BME280;65563;45.970;12.680;2022-12-18T00:50:21;102548.59;;;3.82;68.68
76653;BME280;65563;45.970;12.680;2022-12-18T00:51:22;102538.50;;;3.76;68.23
76653;BME280;65563;45.970;12.680;2022-12-18T00:52:22;102537.53;;;3.77;68.39
76653;BME280;65563;45.970;12.680;2022-12-18T00:53:22;102541.50;;;3.70;68.71
76653;BME280;65563;45.970;12.680;2022-12-18T00:54:23;102540.22;;;3.63;69.16
76653;BME280;65563;45.970;12.680;2022-12-18T00:55:23;102534.97;;;3.63;69.66
76653;BME280;65563;45.970;12.680;2022-12-18T00:56:23;102532.88;;;3.68;69.27
76653;BME280;65563;45.970;12.680;2022-12-18T00:57:23;102534.47;;;3.70;69.13
76653;BME280;65563;45.970;12.680;2022-12-18T00:58:23;102535.00;;;3.75;68.74
76653;BME280;65563;45.970;12.680;2022-12-18T00:59:23;102539.84;;;3.69;68.76
76653;BME280;65563;45.970;12.680;2022-12-18T01:00:24;102537.09;;;3.70;69.01
76653;BME280;65563;45.970;12.680;2022-12-18T01:01:24;102545.81;;;3.71;68.41
76653;BME280;65563;45.970;12.680;2022-12-18T01:02:24;102541.19;;;3.62;69.03
76653;BME280;65563;45.970;12.680;2022-12-18T01:03:24;102542.72;;;3.64;68.76
76653;BME280;65563;45.970;12.680;2022-12-18T01:04:24;102543.34;;;3.55;69.48
76653;BME280;65563;45.970;12.680;2022-12-18T01:05:25;102541.56;;;3.55;69.33
76653;BME280;65563;45.970;12.680;2022-12-18T01:06:25;102543.88;;;3.60;69.45
76653;BME280;65563;45.970;12.680;2022-12-18T01:07:25;102544.53;;;3.64;68.64
76653;BME280;65563;45.970;12.680;2022-12-18T01:08:25;102549.63;;;3.52;69.06
76653;BME280;65563;45.970;12.680;2022-12-18T01:09:26;102562.38;;;3.58;69.40
76653;BME280;65563;45.970;12.680;2022-12-18T01:10:26;102553.56;;;3.59;69.34
76653;BME280;65563;45.970;12.680;2022-12-18T01:11:26;102551.03;;;3.58;69.11
76653;BME280;65563;45.970;12.680;2022-12-18T01:12:26;102558.34;;;3.53;68.75
76653;BME280;65563;45.970;12.680;2022-12-18T01:13:26;102554.88;;;3.52;69.12
76653;BME280;65563;45.970;12.680;2022-12-18T01:14:27;102557.50;;;3.52;68.69
76653;BME280;65563;45.970;12.680;2022-12-18T01:15:27;102560.22;;;3.51;69.38
76653;BME280;65563;45.970;12.680;2022-12-18T01:16:27;102556.94;;;3.47;69.06
76653;BME280;65563;45.970;12.680;2022-12-18T01:17:27;102564.81;;;3.47;69.00
76653;BME280;65563;45.970;12.680;2022-12-18T01:18:27;102563.97;;;3.47;69.26
76653;BME280;65563;45.970;12.680;2022-12-18T01:19:28;102562.00;;;3.50;69.31
76653;BME280;65563;45.970;12.680;2022-12-18T01:20:28;102563.72;;;3.51;69.03
76653;BME280;65563;45.970;12.680;2022-12-18T01:21:28;102558.00;;;3.45;69.18
76653;BME280;65563;45.970;12.680;2022-12-18T01:22:28;102562.31;;;3.46;69.55
76653;BME280;65563;45.970;12.680;2022-12-18T01:23:28;102559.56;;;3.47;69.50
76653;BME280;65563;45.970;12.680;2022-12-18T01:24:29;102572.63;;;3.49;70.09
76653;BME280;65563;45.970;12.680;2022-12-18T01:25:29;102570.84;;;3.49;69.98
76653;BME280;65563;45.970;12.680;2022-12-18T01:26:29;102571.03;;;3.46;69.76
76653;BME280;65563;45.970;12.680;2022-12-18T01:27:29;102568.41;;;3.46;69.54
76653;BME280;65563;45.970;12.680;2022-12-18T01:28:30;102572.16;;;3.42;69.44
76653;BME280;65563;45.970;12.680;2022-12-18T01:29:30;102573.66;;;3.46;69.71
76653;BME280;65563;45.970;12.680;2022-12-18T01:30:30;102574.22;;;3.51;69.56
76653;BME280;65563;45.970;12.680;2022-12-18T01:31:31;102572.63;;;3.49;69.82
76653;BME280;65563;45.970;12.680;2022-12-18T01:32:32;102575.06;;;3.52;69.34
76653;BME280;65563;45.970;12.680;2022-12-18T01:33:32;102575.13;;;3.50;69.18
76653;BME280;65563;45.970;12.680;2022-12-18T01:34:34;102572.81;;;3.46;69.45
76653;BME280;65563;45.970;12.680;2022-12-18T01:35:39;102573.28;;;3.52;68.85
76653;BME280;65563;45.970;12.680;2022-12-18T01:36:40;102573.66;;;3.46;68.84
76653;BME280;65563;45.970;12.680;2022-12-18T01:37:40;102571.78;;;3.48;68.51
76653;BME280;65563;45.970;12.680;2022-12-18T01:38:40;102582.09;;;3.51;68.40
76653;BME280;65563;45.970;12.680;2022-12-18T01:39:40;102574.94;;;3.53;68.40
76653;BME280;65563;45.970;12.680;2022-12-18T01:40:41;102572.50;;;3.50;68.83
76653;BME280;65563;45.970;12.680;2022-12-18T01:41:41;102575.78;;;3.54;68.03
76653;BME280;65563;45.970;12.680;2022-12-18T01:42:41;102574.75;;;3.56;67.92
76653;BME280;65563;45.970;12.680;2022-12-18T01:43:46;102576.84;;;3.51;68.61
76653;BME280;65563;45.970;12.680;2022-12-18T01:45:52;102576.94;;;3.50;68.96
76653;BME280;65563;45.970;12.680;2022-12-18T01:46:53;102577.13;;;3.47;68.41
76653;BME280;65563;45.970;12.680;2022-12-18T01:47:55;102577.97;;;3.47;68.35
76653;BME280;65563;45.970;12.680;2022-12-18T01:48:59;102576.94;;;3.50;68.75
76653;BME280;65563;45.970;12.680;2022-12-18T01:50:42;102582.56;;;3.44;68.41
76653;BME280;65563;45.970;12.680;2022-12-18T01:51:24;102582.47;;;3.45;68.61
76653;BME280;65563;45.970;12.680;2022-12-18T01:52:27;102577.88;;;3.49;68.09
76653;BME280;65563;45.970;12.680;2022-12-18T01:53:28;102579.09;;;3.43;68.47
76653;BME280;65563;45.970;12.680;2022-12-18T01:54:28;102578.25;;;3.43;68.73
76653;BME280;65563;45.970;12.680;2022-12-18T01:55:29;102584.63;;;3.53;68.75
76653;BME280;65563;45.970;12.680;2022-12-18T01:56:30;102585.75;;;3.49;68.21
76653;BME280;65563;45.970;12.680;2022-12-18T01:57:31;102594.00;;;3.43;68.95
76653;BME280;65563;45.970;12.680;2022-12-18T01:59:32;102596.44;;;3.46;67.96
76653;BME280;65563;45.970;12.680;2022-12-18T02:00:33;102594.84;;;3.43;67.84
76653;BME280;65563;45.970;12.680;2022-12-18T02:01:33;102596.56;;;3.44;68.31
76653;BME280;65563;45.970;12.680;2022-12-18T02:02:34;102601.78;;;3.58;68.54
76653;BME280;65563;45.970;12.680;2022-12-18T02:03:34;102601.22;;;3.53;68.26
76653;BME280;65563;45.970;12.680;2022-12-18T02:04:34;102607.06;;;3.44;68.67
76653;BME280;65563;45.970;12.680;2022-12-18T02:05:40;102607.25;;;3.41;68.40
76653;BME280;65563;45.970;12.680;2022-12-18T02:06:43;102615.88;;;3.43;68.52
76653;BME280;65563;45.970;12.680;2022-12-18T02:09:17;102606.69;;;3.36;68.91
76653;BME280;65563;45.970;12.680;2022-12-18T02:10:21;102606.41;;;3.41;68.19
76653;BME280;65563;45.970;12.680;2022-12-18T02:12:38;102611.09;;;3.35;69.07
76653;BME280;65563;45.970;12.680;2022-12-18T02:15:09;102617.66;;;3.43;69.32
76653;BME280;65563;45.970;12.680;2022-12-18T02:17:20;102615.88;;;3.43;68.93
76653;BME280;65563;45.970;12.680;2022-12-18T02:18:22;102618.31;;;3.46;68.10
76653;BME280;65563;45.970;12.680;2022-12-18T02:20:47;102619.44;;;3.42;67.83
76653;BME280;65563;45.970;12.680;2022-12-18T02:26:38;102624.59;;;3.44;68.10
76653;BME280;65563;45.970;12.680;2022-12-18T02:27:41;102620.47;;;3.40;68.46
76653;BME280;65563;45.970;12.680;2022-12-18T02:28:45;102621.78;;;3.47;68.40
76653;BME280;65563;45.970;12.680;2022-12-18T02:29:53;102619.25;;;3.45;68.23
76653;BME280;65563;45.970;12.680;2022-12-18T02:30:55;102621.59;;;3.50;68.12
76653;BME280;65563;45.970;12.680;2022-12-18T02:32:00;102627.47;;;3.53;67.81
76653;BME280;65563;45.970;12.680;2022-12-18T02:33:04;102625.81;;;3.52;68.33
76653;BME280;65563;45.970;12.680;2022-12-18T02:34:04;102621.41;;;3.53;68.02
76653;BME280;65563;45.970;12.680;2022-12-18T02:35:07;102630.03;;;3.55;67.85
76653;BME280;65563;45.970;12.680;2022-12-18T02:36:08;102628.13;;;3.57;67.98
76653;BME280;65563;45.970;12.680;2022-12-18T02:37:11;102627.00;;;3.61;68.00
76653;BME280;65563;45.970;12.680;2022-12-18T02:38:12;102629.16;;;3.69;67.03
76653;BME280;65563;45.970;12.680;2022-12-18T02:39:13;102627.56;;;3.66;67.60
76653;BME280;65563;45.970;12.680;2022-12-18T02:40:15;102625.00;;;3.65;66.90
76653;BME280;65563;45.970;12.680;2022-12-18T02:41:17;102637.25;;;3.66;67.80
76653;BME280;65563;45.970;12.680;2022-12-18T02:42:18;102628.59;;;3.64;67.25
76653;BME280;65563;45.970;12.680;2022-12-18T02:43:18;102635.75;;;3.62;67.12
76653;BME280;65563;45.970;12.680;2022-12-18T02:44:19;102634.41;;;3.69;67.12
76653;BME280;65563;45.970;12.680;2022-12-18T02:45:19;102636.94;;;3.70;66.95
76653;BME280;65563;45.970;12.680;2022-12-18T02:46:24;102632.22;;;3.75;67.14
76653;BME280;65563;45.970;12.680;2022-12-18T02:47:27;102642.19;;;3.70;66.99
76653;BME280;65563;45.970;12.680;2022-12-18T02:48:30;102639.44;;;3.72;67.53
76653;BME280;65563;45.970;12.680;2022-12-18T02:49:36;102643.78;;;3.73;67.09
76653;BME280;65563;45.970;12.680;2022-12-18T02:50:48;102653.34;;;3.74;67.97
76653;BME280;65563;45.970;12.680;2022-12-18T02:51:53;102647.16;;;3.75;66.83
76653;BME280;65563;45.970;12.680;2022-12-18T02:54:27;102645.72;;;3.83;66.94
76653;BME280;65563;45.970;12.680;2022-12-18T02:56:38;102652.84;;;3.81;67.25
76653;BME280;65563;45.970;12.680;2022-12-18T02:57:53;102647.34;;;3.86;66.45
76653;BME280;65563;45.970;12.680;2022-12-18T02:59:56;102651.44;;;3.90;67.09
76653;BME280;65563;45.970;12.680;2022-12-18T03:00:59;102657.16;;;3.97;66.96
76653;BME280;65563;45.970;12.680;2022-12-18T03:02:04;102653.88;;;3.93;66.82
76653;BME280;65563;45.970;12.680;2022-12-18T03:03:10;102657.44;;;3.92;66.42
76653;BME280;65563;45.970;12.680;2022-12-18T03:04:21;102658.00;;;3.97;66.69
76653;BME280;65563;45.970;12.680;2022-12-18T03:05:30;102659.69;;;3.98;66.51
76653;BME280;65563;45.970;12.680;2022-12-18T03:06:42;102658.72;;;3.99;66.58
76653;BME280;65563;45.970;12.680;2022-12-18T03:07:53;102654.94;;;4.03;66.26
76653;BME280;65563;45.970;12.680;2022-12-18T03:08:58;102661.16;;;4.02;66.61
76653;BME280;65563;45.970;12.680;2022-12-18T03:10:00;102660.84;;;4.07;66.46
76653;BME280;65563;45.970;12.680;2022-12-18T03:11:05;102667.06;;;4.06;66.59
76653;BME280;65563;45.970;12.680;2022-12-18T03:12:08;102672.13;;;4.09;66.41
76653;BME280;65563;45.970;12.680;2022-12-18T03:13:13;102662.25;;;4.13;66.13
76653;BME280;65563;45.970;12.680;2022-12-18T03:14:16;102662.06;;;4.16;66.06
76653;BME280;65563;45.970;12.680;2022-12-18T03:15:20;102662.81;;;4.18;65.96
76653;BME280;65563;45.970;12.680;2022-12-18T03:16:24;102665.44;;;4.18;65.75
76653;BME280;65563;45.970;12.680;2022-12-18T03:17:26;102667.78;;;4.22;65.97
76653;BME280;65563;45.970;12.680;2022-12-18T03:18:30;102659.88;;;4.22;65.91
76653;BME280;65563;45.970;12.680;2022-12-18T03:19:32;102661.56;;;4.23;66.18
76653;BME280;65563;45.970;12.680;2022-12-18T03:20:34;102661.75;;;4.20;66.52
76653;BME280;65563;45.970;12.680;2022-12-18T03:21:56;102670.06;;;4.14;67.15
76653;BME280;65563;45.970;12.680;2022-12-18T03:22:57;102665.00;;;4.11;67.61
76653;BME280;65563;45.970;12.680;2022-12-18T03:23:59;102670.78;;;4.16;67.53
76653;BME280;65563;45.970;12.680;2022-12-18T03:25:01;102672.38;;;4.19;66.60
76653;BME280;65563;45.970;12.680;2022-12-18T03:26:04;102670.72;;;4.18;67.48
76653;BME280;65563;45.970;12.680;2022-12-18T03:27:08;102665.34;;;4.19;66.65
76653;BME280;65563;45.970;12.680;2022-12-18T03:28:12;102667.84;;;4.21;66.39
76653;BME280;65563;45.970;12.680;2022-12-18T03:29:17;102672.28;;;4.20;67.22
76653;BME280;65563;45.970;12.680;2022-12-18T03:30:19;102679.88;;;4.25;67.09
76653;BME280;65563;45.970;12.680;2022-12-18T03:31:20;102681.00;;;4.21;67.37
76653;BME280;65563;45.970;12.680;2022-12-18T03:32:31;102675.53;;;4.24;66.71
76653;BME280;65563;45.970;12.680;2022-12-18T03:33:45;102672.91;;;4.24;66.85
76653;BME280;65563;45.970;12.680;2022-12-18T03:34:46;102682.97;;;4.17;66.79
76653;BME280;65563;45.970;12.680;2022-12-18T03:35:49;102682.78;;;4.20;66.60
76653;BME280;65563;45.970;12.680;2022-12-18T03:36:49;102679.97;;;4.23;66.78
76653;BME280;65563;45.970;12.680;2022-12-18T03:37:49;102679.88;;;4.25;66.82
76653;BME280;65563;45.970;12.680;2022-12-18T03:38:50;102672.91;;;4.24;67.03
76653;BME280;65563;45.970;12.680;2022-12-18T03:39:50;102687.84;;;4.23;66.54
76653;BME280;65563;45.970;12.680;2022-12-18T03:41:52;102687.66;;;4.26;65.96
76653;BME280;65563;45.970;12.680;2022-12-18T03:42:57;102686.63;;;4.29;66.33
76653;BME280;65563;45.970;12.680;2022-12-18T03:44:03;102689.25;;;4.29;66.26
76653;BME280;65563;45.970;12.680;2022-12-18T03:45:13;102685.47;;;4.33;66.43
76653;BME280;65563;45.970;12.680;2022-12-18T03:48:44;102688.50;;;4.27;67.96
76653;BME280;65563;45.970;12.680;2022-12-18T03:50:49;102683.34;;;4.25;67.83
76653;BME280;65563;45.970;12.680;2022-12-18T03:53:09;102682.72;;;4.22;67.42
76653;BME280;65563;45.970;12.680;2022-12-18T03:54:12;102679.66;;;4.28;66.56
76653;BME280;65563;45.970;12.680;2022-12-18T03:55:13;102686.63;;;4.29;66.46
76653;BME280;65563;45.970;12.680;2022-12-18T03:56:13;102689.97;;;4.31;66.06
76653;BME280;65563;45.970;12.680;2022-12-18T03:57:18;102684.28;;;4.24;66.20
76653;BME280;65563;45.970;12.680;2022-12-18T03:58:20;102682.16;;;4.17;66.92
76653;BME280;65563;45.970;12.680;2022-12-18T03:59:22;102689.78;;;4.07;67.72
76653;BME280;65563;45.970;12.680;2022-12-18T04:00:23;102689.38;;;4.13;67.37
76653;BME280;65563;45.970;12.680;2022-12-18T04:01:26;102685.91;;;4.13;66.82
76653;BME280;65563;45.970;12.680;2022-12-18T04:02:28;102695.69;;;4.11;66.53
76653;BME280;65563;45.970;12.680;2022-12-18T04:03:30;102699.19;;;4.11;66.36
76653;BME280;65563;45.970;12.680;2022-12-18T04:04:31;102698.13;;;4.14;66.03
76653;BME280;65563;45.970;12.680;2022-12-18T04:05:33;102710.63;;;4.10;66.67
76653;BME280;65563;45.970;12.680;2022-12-18T04:06:33;102709.88;;;4.08;66.52
76653;BME280;65563;45.970;12.680;2022-12-18T04:07:35;102707.44;;;4.05;66.24
76653;BME280;65563;45.970;12.680;2022-12-18T04:08:36;102701.16;;;4.07;66.36
76653;BME280;65563;45.970;12.680;2022-12-18T04:09:36;102700.28;;;4.07;66.55
76653;BME280;65563;45.970;12.680;2022-12-18T04:10:38;102703.22;;;4.02;66.36
76653;BME280;65563;45.970;12.680;2022-12-18T04:11:39;102708.28;;;4.05;66.70
76653;BME280;65563;45.970;12.680;2022-12-18T04:12:39;102705.78;;;4.04;66.38
76653;BME280;65563;45.970;12.680;2022-12-18T04:13:40;102713.94;;;3.99;66.46
76653;BME280;65563;45.970;12.680;2022-12-18T04:14:42;102720.91;;;4.00;66.38
76653;BME280;65563;45.970;12.680;2022-12-18T04:15:42;102713.00;;;4.00;66.45
76653;BME280;65563;45.970;12.680;2022-12-18T04:16:42;102719.38;;;3.96;66.17
76653;BME280;65563;45.970;12.680;2022-12-18T04:17:51;102718.47;;;3.97;66.36
76653;BME280;65563;45.970;12.680;2022-12-18T04:18:51;102724.38;;;3.87;66.45
76653;BME280;65563;45.970;12.680;2022-12-18T04:19:52;102728.81;;;3.86;67.20
76653;BME280;65563;45.970;12.680;2022-12-18T04:20:52;102732.16;;;3.88;67.21
76653;BME280;65563;45.970;12.680;2022-12-18T04:21:52;102733.00;;;3.89;67.75
76653;BME280;65563;45.970;12.680;2022-12-18T04:22:52;102734.91;;;3.87;67.52
76653;BME280;65563;45.970;12.680;2022-12-18T04:23:53;102733.97;;;3.88;67.43
76653;BME280;65563;45.970;12.680;2022-12-18T04:24:53;102733.31;;;3.84;67.71
76653;BME280;65563;45.970;12.680;2022-12-18T04:25:53;102729.06;;;3.81;67.03
76653;BME280;65563;45.970;12.680;2022-12-18T04:26:54;102733.78;;;3.76;67.80
76653;BME280;65563;45.970;12.680;2022-12-18T04:27:54;102735.56;;;3.76;68.27
76653;BME280;65563;45.970;12.680;2022-12-18T04:28:54;102735.84;;;3.71;67.90
76653;BME280;65563;45.970;12.680;2022-12-18T04:29:54;102736.66;;;3.72;67.73
76653;BME280;65563;45.970;12.680;2022-12-18T04:30:54;102739.31;;;3.72;68.21
76653;BME280;65563;45.970;12.680;2022-12-18T04:31:55;102742.16;;;3.69;68.56
76653;BME280;65563;45.970;12.680;2022-12-18T04:32:55;102742.16;;;3.69;67.93
76653;BME280;65563;45.970;12.680;2022-12-18T04:33:55;102746.53;;;3.68;68.45
76653;BME280;65563;45.970;12.680;2022-12-18T04:34:55;102745.22;;;3.61;68.99
76653;BME280;65563;45.970;12.680;2022-12-18T04:35:55;102743.91;;;3.54;69.33
76653;BME280;65563;45.970;12.680;2022-12-18T04:36:55;102747.84;;;3.61;68.69
76653;BME280;65563;45.970;12.680;2022-12-18T04:37:56;102753.22;;;3.59;69.25
76653;BME280;65563;45.970;12.680;2022-12-18T04:38:56;102754.22;;;3.57;69.21
76653;BME280;65563;45.970;12.680;2022-12-18T04:39:56;102753.56;;;3.53;69.40
76653;BME280;65563;45.970;12.680;2022-12-18T04:40:56;102757.31;;;3.49;69.25
76653;BME280;65563;45.970;12.680;2022-12-18T04:41:59;102755.25;;;3.54;68.85
76653;BME280;65563;45.970;12.680;2022-12-18T04:42:59;102760.97;;;3.47;69.27
76653;BME280;65563;45.970;12.680;2022-12-18T04:44:00;102762.28;;;3.54;68.68
76653;BME280;65563;45.970;12.680;2022-12-18T04:45:00;102764.66;;;3.58;69.02
76653;BME280;65563;45.970;12.680;2022-12-18T04:46:04;102762.03;;;3.58;69.23
76653;BME280;65563;45.970;12.680;2022-12-18T04:47:04;102770.00;;;3.57;68.94
76653;BME280;65563;45.970;12.680;2022-12-18T04:48:04;102762.59;;;3.64;67.91
76653;BME280;65563;45.970;12.680;2022-12-18T04:49:05;102767.47;;;3.55;68.45
76653;BME280;65563;45.970;12.680;2022-12-18T04:50:05;102767.66;;;3.52;68.88
76653;BME280;65563;45.970;12.680;2022-12-18T04:51:05;102768.50;;;3.53;69.58
76653;BME280;65563;45.970;12.680;2022-12-18T04:52:06;102763.91;;;3.56;68.86
76653;BME280;65563;45.970;12.680;2022-12-18T04:53:06;102770.75;;;3.59;68.37
76653;BME280;65563;45.970;12.680;2022-12-18T04:54:06;102765.41;;;3.61;68.79
76653;BME280;65563;45.970;12.680;2022-12-18T04:55:06;102763.13;;;3.54;68.43
76653;BME280;65563;45.970;12.680;2022-12-18T04:56:08;102765.75;;;3.54;68.80
76653;BME280;65563;45.970;12.680;2022-12-18T04:57:08;102764.84;;;3.55;68.19
76653;BME280;65563;45.970;12.680;2022-12-18T04:58:09;102769.81;;;3.60;68.51
76653;BME280;65563;45.970;12.680;2022-12-18T04:59:09;102774.34;;;3.58;68.29
76653;BME280;65563;45.970;12.680;2022-12-18T05:00:09;102773.94;;;3.50;68.96
76653;BME280;65563;45.970;12.680;2022-12-18T05:01:10;102771.41;;;3.48;70.05
76653;BME280;65563;45.970;12.680;2022-12-18T05:02:10;102771.97;;;3.53;69.92
76653;BME280;65563;45.970;12.680;2022-12-18T05:03:11;102783.41;;;3.52;70.24
76653;BME280;65563;45.970;12.680;2022-12-18T05:04:11;102775.59;;;3.51;70.06
76653;BME280;65563;45.970;12.680;2022-12-18T05:05:11;102786.50;;;3.45;70.92
76653;BME280;65563;45.970;12.680;2022-12-18T05:06:11;102789.13;;;3.45;71.01
76653;BME280;65563;45.970;12.680;2022-12-18T05:07:11;102779.09;;;3.37;71.34
76653;BME280;65563;45.970;12.680;2022-12-18T05:08:12;102778.81;;;3.42;70.51
76653;BME280;65563;45.970;12.680;2022-12-18T05:09:12;102784.91;;;3.42;69.55
76653;BME280;65563;45.970;12.680;2022-12-18T05:10:12;102785.44;;;3.33;69.97
76653;BME280;65563;45.970;12.680;2022-12-18T05:11:13;102785.91;;;3.40;69.82
76653;BME280;65563;45.970;12.680;2022-12-18T05:12:13;102788.81;;;3.35;69.98
76653;BME280;65563;45.970;12.680;2022-12-18T05:13:13;102786.72;;;3.26;71.22
76653;BME280;65563;45.970;12.680;2022-12-18T05:14:13;102782.25;;;3.28;71.41
76653;BME280;65563;45.970;12.680;2022-12-18T05:15:14;102792.53;;;3.17;72.23
76653;BME280;65563;45.970;12.680;2022-12-18T05:16:14;102788.13;;;3.17;71.89
76653;BME280;65563;45.970;12.680;2022-12-18T05:17:14;102784.25;;;3.08;72.79
76653;BME280;65563;45.970;12.680;2022-12-18T05:18:14;102794.22;;;3.18;72.56
76653;BME280;65563;45.970;12.680;2022-12-18T05:19:14;102791.78;;;3.15;72.22
76653;BME280;65563;45.970;12.680;2022-12-18T05:20:15;102798.63;;;3.17;72.79
76653;BME280;65563;45.970;12.680;2022-12-18T05:21:15;102791.78;;;3.15;72.52
76653;BME280;65563;45.970;12.680;2022-12-18T05:22:15;102797.19;;;3.11;72.25
76653;BME280;65563;45.970;12.680;2022-12-18T05:23:15;102799.66;;;3.15;72.43
76653;BME280;65563;45.970;12.680;2022-12-18T05:24:15;102799.47;;;3.18;72.82
76653;BME280;65563;45.970;12.680;2022-12-18T05:25:16;102797.97;;;3.14;73.26
76653;BME280;65563;45.970;12.680;2022-12-18T05:26:17;102797.38;;;3.08;73.86
76653;BME280;65563;45.970;12.680;2022-12-18T05:27:17;102801.00;;;2.92;74.12
76653;BME280;65563;45.970;12.680;2022-12-18T05:28:18;102805.16;;;2.80;74.40
76653;BME280;65563;45.970;12.680;2022-12-18T05:29:18;102802.28;;;2.69;74.92
76653;BME280;65563;45.970;12.680;2022-12-18T05:30:18;102815.75;;;2.62;74.66
76653;BME280;65563;45.970;12.680;2022-12-18T05:31:18;102806.88;;;2.65;74.58
76653;BME280;65563;45.970;12.680;2022-12-18T05:32:19;102809.81;;;2.75;73.98
76653;BME280;65563;45.970;12.680;2022-12-18T05:33:19;102802.03;;;2.73;74.16
76653;BME280;65563;45.970;12.680;2022-12-18T05:34:20;102805.69;;;2.71;73.44
76653;BME280;65563;45.970;12.680;2022-12-18T05:35:20;102805.63;;;2.56;74.44
76653;BME280;65563;45.970;12.680;2022-12-18T05:36:20;102802.56;;;2.48;75.23
76653;BME280;65563;45.970;12.680;2022-12-18T05:37:20;102816.34;;;2.52;75.54
76653;BME280;65563;45.970;12.680;2022-12-18T05:38:21;102803.97;;;2.70;76.03
76653;BME280;65563;45.970;12.680;2022-12-18T05:39:21;102813.13;;;2.62;75.56
76653;BME280;65563;45.970;12.680;2022-12-18T05:40:21;102818.19;;;2.66;75.04
76653;BME280;65563;45.970;12.680;2022-12-18T05:41:21;102823.00;;;2.73;75.12
76653;BME280;65563;45.970;12.680;2022-12-18T05:42:21;102827.19;;;2.77;75.38
76653;BME280;65563;45.970;12.680;2022-12-18T05:43:24;102823.50;;;2.80;75.47
76653;BME280;65563;45.970;12.680;2022-12-18T05:44:24;102825.47;;;2.76;75.37
76653;BME280;65563;45.970;12.680;2022-12-18T05:45:24;102823.50;;;2.80;74.50